Time;durP1;ratioP1;P1;durP2;ratioP2;P2;SDS_P1;SDS_P2;PMS_P1;PMS_P2;Temp;Humidity;BMP_temperature;BMP_pressure;BME280_temperature;BME280_humidity;BME280_pressure;Samples;Min_cycle;Max_cycle;Signal;HPM_P1;HPM_P2
2022/07/09 00:00:06;;;;;;;5.13;2.22;;;17.60;99.90;;;;;;4989852;28;20034;-48
2022/07/09 00:02:34;;;;;;;5.00;1.73;;;17.50;99.90;;;;;;4991414;28;20353;-43
2022/07/09 00:05:00;;;;;;;2.75;1.30;;;17.50;99.90;;;;;;4988181;28;20096;-46
2022/07/09 00:07:26;;;;;;;3.15;1.08;;;17.50;99.90;;;;;;4985062;28;20431;-43
2022/07/09 00:09:52;;;;;;;4.47;1.38;;;17.40;99.90;;;;;;4989257;28;20132;-44
2022/07/09 00:12:18;;;;;;;4.68;1.60;;;17.40;99.90;;;;;;4989852;28;20045;-43
2022/07/09 00:14:44;;;;;;;4.90;2.38;;;17.30;99.90;;;;;;4987214;28;20039;-47
2022/07/09 00:17:10;;;;;;;5.82;2.30;;;17.30;99.90;;;;;;4988819;28;20172;-45
2022/07/09 00:19:35;;;;;;;6.72;2.33;;;17.30;99.90;;;;;;4987116;28;20137;-46
2022/07/09 00:22:02;;;;;;;5.50;2.17;;;17.20;99.90;;;;;;4981412;28;20174;-43
2022/07/09 00:24:27;;;;;;;5.97;2.10;;;17.20;99.90;;;;;;4983637;28;20042;-44
2022/07/09 00:26:53;;;;;;;5.30;2.10;;;17.20;99.90;;;;;;4984253;28;20038;-43
2022/07/09 00:29:18;;;;;;;4.07;1.88;;;17.10;99.90;;;;;;4987834;28;20046;-44
2022/07/09 00:31:45;;;;;;;3.30;1.70;;;17.10;99.90;;;;;;4984760;28;20053;-43
2022/07/09 00:34:12;;;;;;;4.20;2.10;;;17.10;99.90;;;;;;4989624;28;20049;-44
2022/07/09 00:36:38;;;;;;;3.03;1.30;;;17.00;99.90;;;;;;4984852;28;20046;-43
2022/07/09 00:39:04;;;;;;;2.92;1.67;;;17.00;99.90;;;;;;4987995;28;20038;-43
2022/07/09 00:41:30;;;;;;;2.97;1.60;;;17.00;99.90;;;;;;4989158;28;20046;-44
2022/07/09 00:43:56;;;;;;;4.38;2.30;;;16.90;99.90;;;;;;4985956;28;20107;-42
2022/07/09 00:46:22;;;;;;;3.42;1.70;;;16.90;99.90;;;;;;4989997;28;20042;-42
2022/07/09 00:48:47;;;;;;;2.30;1.00;;;16.90;99.90;;;;;;4984204;28;20034;-43
2022/07/09 00:51:14;;;;;;;2.03;0.77;;;16.90;99.90;;;;;;4986506;28;20505;-44
2022/07/09 00:53:41;;;;;;;1.92;0.80;;;16.80;99.90;;;;;;4988396;28;20076;-42
2022/07/09 00:56:07;;;;;;;3.63;1.25;;;16.60;99.90;;;;;;4987299;28;20034;-43
2022/07/09 00:58:35;;;;;;;2.00;0.65;;;16.60;99.90;;;;;;4985632;28;20507;-43
2022/07/09 01:01:01;;;;;;;1.08;0.68;;;16.50;99.90;;;;;;4985575;28;20764;-44
2022/07/09 01:03:27;;;;;;;3.65;0.80;;;16.50;99.90;;;;;;4987025;28;20054;-44
2022/07/09 01:05:53;;;;;;;2.75;1.00;;;16.40;99.90;;;;;;4986139;28;20407;-44
2022/07/09 01:08:19;;;;;;;20.60;1.67;;;16.40;99.90;;;;;;4989514;28;20038;-44
2022/07/09 01:10:45;;;;;;;36.75;2.40;;;16.30;99.90;;;;;;4985895;28;20047;-45
2022/07/09 01:13:11;;;;;;;2.13;1.15;;;16.20;99.90;;;;;;4985995;28;20062;-42
2022/07/09 01:15:37;;;;;;;2.22;0.90;;;16.10;99.90;;;;;;4988138;28;20139;-42
2022/07/09 01:18:04;;;;;;;4.47;1.08;;;16.10;99.90;;;;;;4988468;28;20639;-46
2022/07/09 01:20:30;;;;;;;19.42;1.75;;;16.10;99.90;;;;;;4982559;28;20519;-43
2022/07/09 01:22:57;;;;;;;7.20;1.30;;;16.20;99.90;;;;;;4981698;28;20054;-43
2022/07/09 01:25:43;;;;;;;7.82;1.15;;;16.10;99.90;;;;;;4989821;28;20129;-44
2022/07/09 01:28:09;;;;;;;2.55;0.93;;;16.10;99.90;;;;;;4984979;28;20049;-43
2022/07/09 01:30:37;;;;;;;2.47;1.15;;;16.10;99.90;;;;;;5003626;28;20062;-46
2022/07/09 01:33:03;;;;;;;1.77;0.77;;;16.10;99.90;;;;;;4984531;28;20042;-45
2022/07/09 01:35:29;;;;;;;4.57;1.65;;;16.10;99.90;;;;;;4987540;28;20049;-46
2022/07/09 01:37:55;;;;;;;1.95;1.10;;;16.10;99.90;;;;;;4985800;28;20042;-44
2022/07/09 01:40:21;;;;;;;2.92;1.55;;;16.20;99.90;;;;;;4986151;28;20057;-46
2022/07/09 01:42:47;;;;;;;4.47;1.70;;;16.20;99.90;;;;;;4986399;28;20114;-44
2022/07/09 01:45:14;;;;;;;3.58;1.30;;;16.30;99.90;;;;;;4982950;28;20041;-43
2022/07/09 01:47:40;;;;;;;5.75;1.73;;;16.40;99.90;;;;;;4985007;28;20037;-46
2022/07/09 01:50:07;;;;;;;3.30;1.58;;;16.40;99.90;;;;;;4984434;28;20046;-45
2022/07/09 01:52:33;;;;;;;4.72;1.83;;;16.40;99.90;;;;;;4986099;28;20035;-44
2022/07/09 01:54:59;;;;;;;4.90;1.73;;;16.40;99.90;;;;;;4987081;28;20061;-42
2022/07/09 01:57:25;;;;;;;4.63;1.90;;;16.50;99.90;;;;;;4985842;28;20042;-43
2022/07/09 01:59:51;;;;;;;3.45;1.67;;;16.50;99.90;;;;;;4985018;28;20049;-43
2022/07/09 02:02:17;;;;;;;2.97;1.33;;;16.50;99.90;;;;;;4983746;28;20043;-43
2022/07/09 02:04:42;;;;;;;2.83;1.38;;;16.60;99.90;;;;;;4982342;28;20046;-46
2022/07/09 02:07:08;;;;;;;3.85;1.77;;;16.50;99.90;;;;;;4981354;28;20228;-45
2022/07/09 02:09:34;;;;;;;5.50;2.22;;;16.50;99.90;;;;;;4986453;28;20069;-43
2022/07/09 02:12:00;;;;;;;4.45;1.88;;;16.50;99.90;;;;;;4990138;28;20460;-46
2022/07/09 02:14:25;;;;;;;3.17;1.35;;;16.60;99.90;;;;;;4990175;28;20096;-44
2022/07/09 02:16:51;;;;;;;5.57;2.13;;;16.60;99.90;;;;;;4991996;28;20499;-43
2022/07/09 02:19:17;;;;;;;5.03;2.90;;;16.60;99.90;;;;;;4988909;28;20100;-43
2022/07/09 02:21:42;;;;;;;5.90;2.50;;;16.70;99.90;;;;;;4990398;28;20068;-47
2022/07/09 02:24:08;;;;;;;4.70;2.17;;;16.70;99.90;;;;;;4984461;28;20038;-43
2022/07/09 02:26:33;;;;;;;6.25;2.28;;;16.70;99.90;;;;;;4985772;28;20058;-44
2022/07/09 02:28:59;;;;;;;4.00;2.20;;;16.70;99.90;;;;;;5005049;28;20093;-49
2022/07/09 02:31:26;;;;;;;5.68;2.25;;;16.70;99.90;;;;;;4990306;28;20961;-47
2022/07/09 02:33:52;;;;;;;6.43;2.58;;;16.70;99.90;;;;;;4989214;28;20105;-43
2022/07/09 02:36:19;;;;;;;5.70;2.40;;;16.70;99.90;;;;;;4988765;28;20951;-41
2022/07/09 02:38:45;;;;;;;5.80;1.95;;;16.70;99.90;;;;;;4990319;28;20049;-49
2022/07/09 02:41:11;;;;;;;4.72;2.00;;;16.70;99.90;;;;;;4988260;28;20031;-44
2022/07/09 02:43:38;;;;;;;5.18;2.33;;;16.80;99.90;;;;;;4983361;28;20589;-46
2022/07/09 02:46:04;;;;;;;6.85;2.45;;;16.80;99.90;;;;;;4989160;28;20057;-43
2022/07/09 02:48:31;;;;;;;5.22;1.98;;;16.80;99.90;;;;;;4989318;28;20126;-45
2022/07/09 02:50:56;;;;;;;5.85;2.13;;;16.70;99.90;;;;;;4997644;28;20057;-46
2022/07/09 02:53:22;;;;;;;4.75;2.50;;;16.70;99.90;;;;;;4989291;28;20479;-43
2022/07/09 02:55:48;;;;;;;7.80;2.50;;;16.70;99.90;;;;;;4991122;28;20027;-47
2022/07/09 02:58:14;;;;;;;3.85;2.03;;;16.70;99.90;;;;;;4986061;28;20057;-42
2022/07/09 03:00:40;;;;;;;4.93;1.90;;;16.70;99.90;;;;;;4988666;28;20495;-44
2022/07/09 03:03:06;;;;;;;6.97;2.55;;;16.70;99.90;;;;;;4985494;28;20479;-45
2022/07/09 03:05:32;;;;;;;5.47;2.08;;;16.70;99.90;;;;;;4980769;28;20137;-44
2022/07/09 03:07:58;;;;;;;6.57;2.08;;;16.70;99.90;;;;;;4983617;28;20069;-44
2022/07/09 03:10:24;;;;;;;5.70;1.80;;;16.70;99.90;;;;;;4986064;28;20042;-47
2022/07/09 03:12:50;;;;;;;5.65;1.92;;;16.70;99.90;;;;;;4987532;28;20510;-47
2022/07/09 03:15:16;;;;;;;6.57;1.88;;;16.70;99.90;;;;;;4991928;28;20476;-43
2022/07/09 03:17:46;;;;;;;7.07;2.10;;;16.80;99.90;;;;;;4984708;28;20133;-42
2022/07/09 03:20:12;;;;;;;7.18;2.85;;;16.80;99.90;;;;;;4984988;28;20436;-43
2022/07/09 03:22:38;;;;;;;5.80;2.58;;;16.80;99.90;;;;;;4985905;28;20046;-43
2022/07/09 03:25:05;;;;;;;4.25;1.95;;;16.80;99.90;;;;;;4990053;28;20219;-46
2022/07/09 03:27:31;;;;;;;5.85;2.40;;;16.80;99.90;;;;;;4988505;28;20053;-43
2022/07/09 03:29:57;;;;;;;6.40;2.45;;;16.70;99.90;;;;;;4990034;28;20038;-44
2022/07/09 03:32:22;;;;;;;3.72;1.83;;;16.80;99.90;;;;;;4989937;28;20026;-49
2022/07/09 03:34:48;;;;;;;6.50;3.03;;;16.70;99.90;;;;;;4991216;28;20483;-43
2022/07/09 03:37:14;;;;;;;3.78;1.98;;;16.70;99.90;;;;;;4989195;28;20646;-43
2022/07/09 03:39:40;;;;;;;8.52;2.78;;;16.80;99.90;;;;;;4991819;28;20450;-44
2022/07/09 03:42:06;;;;;;;4.78;2.08;;;16.80;99.90;;;;;;4988571;28;20038;-47
2022/07/09 03:44:35;;;;;;;5.85;2.47;;;16.80;99.90;;;;;;4989131;28;20046;-44
2022/07/09 03:47:01;;;;;;;4.88;2.10;;;16.70;99.90;;;;;;4988239;28;20073;-44
2022/07/09 03:49:26;;;;;;;8.07;3.22;;;16.70;99.90;;;;;;4990104;28;20084;-47
2022/07/09 03:51:53;;;;;;;8.60;2.90;;;16.60;99.90;;;;;;4990580;28;20042;-50
2022/07/09 03:54:18;;;;;;;5.38;3.05;;;16.60;99.90;;;;;;4986011;28;20074;-45
2022/07/09 03:56:44;;;;;;;11.98;3.55;;;16.50;99.90;;;;;;4986846;28;20075;-43
2022/07/09 03:59:10;;;;;;;5.50;2.70;;;16.40;99.90;;;;;;4985710;28;20069;-47
2022/07/09 04:01:35;;;;;;;6.28;3.30;;;16.30;99.90;;;;;;4986369;28;20119;-43
2022/07/09 04:04:01;;;;;;;5.80;2.92;;;16.30;99.90;;;;;;4982047;28;20050;-45
2022/07/09 04:06:27;;;;;;;5.80;2.58;;;16.40;99.90;;;;;;4983865;28;20491;-42
2022/07/09 04:08:53;;;;;;;8.73;3.05;;;16.40;99.90;;;;;;4987749;28;20045;-42
2022/07/09 04:11:18;;;;;;;8.52;3.30;;;16.40;99.90;;;;;;4986833;28;20037;-47
2022/07/09 04:13:44;;;;;;;6.00;2.95;;;16.40;99.90;;;;;;4987552;28;20050;-43
2022/07/09 04:16:10;;;;;;;6.47;3.20;;;16.40;99.90;;;;;;4988729;28;20508;-47
2022/07/09 04:18:35;;;;;;;8.57;2.95;;;16.40;99.90;;;;;;4981410;28;20077;-48
2022/07/09 04:21:01;;;;;;;5.93;2.70;;;16.40;99.90;;;;;;4983891;28;20068;-45
2022/07/09 04:23:27;;;;;;;4.50;2.65;;;16.40;99.90;;;;;;4987928;28;20045;-43
2022/07/09 04:25:53;;;;;;;6.47;3.17;;;16.40;99.90;;;;;;4985408;28;20445;-44
2022/07/09 04:28:19;;;;;;;6.47;3.55;;;16.40;99.90;;;;;;4988244;28;20038;-44
2022/07/09 04:30:46;;;;;;;8.25;3.70;;;16.40;99.90;;;;;;4984834;28;20109;-48
2022/07/09 04:33:12;;;;;;;11.20;2.88;;;16.50;99.90;;;;;;4983751;28;20504;-48
2022/07/09 04:35:38;;;;;;;7.32;2.88;;;16.50;99.90;;;;;;4981089;28;20046;-44
2022/07/09 04:38:04;;;;;;;4.82;2.40;;;16.60;99.90;;;;;;4985474;28;20030;-45
2022/07/09 04:40:30;;;;;;;6.32;2.63;;;16.60;99.90;;;;;;4988734;28;20555;-42
2022/07/09 04:42:56;;;;;;;5.88;2.65;;;16.70;99.90;;;;;;4986382;28;20038;-44
2022/07/09 04:45:22;;;;;;;7.90;2.85;;;16.70;99.90;;;;;;4986824;28;20046;-48
2022/07/09 04:47:47;;;;;;;6.60;2.67;;;16.70;99.90;;;;;;4987058;28;20034;-44
2022/07/09 04:50:13;;;;;;;8.85;3.13;;;16.80;99.90;;;;;;4988380;28;20065;-48
2022/07/09 04:52:39;;;;;;;5.95;2.50;;;16.90;99.90;;;;;;4985934;28;20037;-46
2022/07/09 04:55:06;;;;;;;8.00;2.83;;;16.90;99.90;;;;;;4987561;28;20120;-44
2022/07/09 04:57:32;;;;;;;6.50;2.42;;;17.00;99.90;;;;;;4987789;28;20043;-43
2022/07/09 05:00:01;;;;;;;6.45;2.70;;;17.00;99.90;;;;;;4986988;28;20049;-44
2022/07/09 05:02:27;;;;;;;3.63;2.25;;;17.00;99.90;;;;;;4986002;28;20105;-43
2022/07/09 05:04:53;;;;;;;6.70;2.92;;;17.10;99.90;;;;;;4983919;28;20054;-43
2022/07/09 05:07:19;;;;;;;6.57;2.13;;;17.10;99.90;;;;;;4983441;28;20459;-45
2022/07/09 05:09:45;;;;;;;4.78;2.38;;;17.10;99.90;;;;;;4987654;28;20042;-43
2022/07/09 05:12:11;;;;;;;4.28;2.35;;;17.10;99.90;;;;;;4987058;28;20154;-46
2022/07/09 05:14:37;;;;;;;5.93;2.45;;;17.10;99.90;;;;;;4985461;28;20377;-46
2022/07/09 05:17:04;;;;;;;5.30;2.47;;;17.10;99.90;;;;;;4987420;28;20034;-48
2022/07/09 05:19:31;;;;;;;4.95;2.55;;;17.10;99.90;;;;;;4987098;28;20100;-44
2022/07/09 05:21:56;;;;;;;5.30;2.13;;;17.20;99.90;;;;;;4986532;28;20034;-42
2022/07/09 05:24:22;;;;;;;4.90;2.00;;;17.20;99.90;;;;;;4984241;28;20038;-45
2022/07/09 05:26:48;;;;;;;4.80;1.50;;;17.20;99.90;;;;;;4986976;28;20093;-43
2022/07/09 05:29:14;;;;;;;5.13;2.50;;;17.20;99.90;;;;;;4986859;28;20049;-45
2022/07/09 05:31:40;;;;;;;5.05;1.80;;;17.20;99.90;;;;;;4987593;28;20068;-46
2022/07/09 05:34:07;;;;;;;3.17;1.73;;;17.30;99.90;;;;;;4986448;28;20042;-43
2022/07/09 05:36:33;;;;;;;3.80;1.90;;;17.30;99.90;;;;;;4987278;28;20044;-44
2022/07/09 05:39:00;;;;;;;7.57;2.08;;;17.40;99.90;;;;;;4988223;28;20129;-44
2022/07/09 05:41:26;;;;;;;4.22;1.83;;;17.40;99.90;;;;;;4990456;28;20085;-43
2022/07/09 05:43:55;;;;;;;5.47;1.85;;;17.50;99.90;;;;;;4989748;28;20073;-43
2022/07/09 05:46:21;;;;;;;5.00;1.98;;;17.60;99.90;;;;;;4990147;28;20046;-43
2022/07/09 05:48:47;;;;;;;5.93;1.80;;;17.70;99.90;;;;;;4988417;28;20588;-44
2022/07/09 05:51:12;;;;;;;5.03;1.83;;;17.70;99.90;;;;;;4989745;28;20041;-46
2022/07/09 05:53:38;;;;;;;4.57;1.70;;;17.70;99.90;;;;;;4988369;28;20108;-45
2022/07/09 05:56:04;;;;;;;6.13;1.73;;;17.80;99.90;;;;;;4986819;28;20038;-44
2022/07/09 05:58:30;;;;;;;4.47;2.03;;;17.80;99.90;;;;;;4985519;28;20030;-44
2022/07/09 06:00:55;;;;;;;4.18;2.47;;;17.80;99.90;;;;;;4982108;28;20058;-44
2022/07/09 06:03:21;;;;;;;3.40;1.70;;;17.80;99.90;;;;;;4981961;28;20443;-43
2022/07/09 06:05:47;;;;;;;5.32;2.25;;;17.80;99.90;;;;;;4984434;28;20042;-44
2022/07/09 06:08:13;;;;;;;4.95;1.75;;;17.80;99.90;;;;;;4981035;28;20042;-51
2022/07/09 06:10:38;;;;;;;3.13;1.63;;;17.90;99.90;;;;;;4981497;28;20030;-47
2022/07/09 06:13:04;;;;;;;4.18;1.70;;;17.90;99.90;;;;;;4984462;28;20046;-46
2022/07/09 06:15:30;;;;;;;4.75;1.50;;;18.00;99.90;;;;;;4984701;28;20419;-43
2022/07/09 06:17:56;;;;;;;3.97;1.60;;;18.00;99.90;;;;;;4982741;28;20542;-47
2022/07/09 06:20:21;;;;;;;2.97;1.50;;;18.00;99.90;;;;;;4982093;28;20053;-46
2022/07/09 06:22:47;;;;;;;4.13;1.35;;;18.00;99.90;;;;;;4981795;28;20510;-45
2022/07/09 06:25:13;;;;;;;2.70;1.02;;;18.00;99.90;;;;;;4981320;28;20065;-44
2022/07/09 06:27:40;;;;;;;2.08;1.10;;;18.10;99.90;;;;;;4981432;28;20031;-46
2022/07/09 06:30:07;;;;;;;5.60;1.13;;;18.10;99.90;;;;;;4981165;28;20085;-44
2022/07/09 06:32:32;;;;;;;3.42;1.40;;;18.20;99.90;;;;;;4980133;28;20042;-45
2022/07/09 06:34:58;;;;;;;3.35;1.23;;;18.20;99.90;;;;;;4978772;28;20038;-46
2022/07/09 06:37:24;;;;;;;3.08;0.85;;;18.30;99.90;;;;;;4975729;28;20512;-43
2022/07/09 06:39:50;;;;;;;2.45;0.90;;;18.30;99.90;;;;;;4981167;28;20050;-42
2022/07/09 06:42:17;;;;;;;2.65;0.90;;;18.40;99.90;;;;;;4978114;28;20582;-43
2022/07/09 06:44:43;;;;;;;2.28;0.80;;;18.40;99.90;;;;;;4979947;28;20042;-45
2022/07/09 06:47:10;;;;;;;2.92;0.73;;;18.40;99.90;;;;;;4981989;28;20097;-44
2022/07/09 06:49:36;;;;;;;2.63;0.75;;;18.40;99.90;;;;;;4975008;28;20099;-44
2022/07/09 06:52:02;;;;;;;4.40;1.00;;;18.40;99.90;;;;;;4982650;28;20129;-47
2022/07/09 06:54:28;;;;;;;2.75;0.93;;;18.50;99.90;;;;;;4982044;28;20035;-42
2022/07/09 06:56:56;;;;;;;1.63;0.80;;;18.50;99.90;;;;;;4982717;28;20041;-46
2022/07/09 06:59:22;;;;;;;3.67;1.00;;;18.60;99.90;;;;;;4986313;28;20042;-48
2022/07/09 07:01:48;;;;;;;3.75;1.00;;;18.60;99.90;;;;;;4984768;28;20145;-43
2022/07/09 07:04:14;;;;;;;2.22;0.80;;;18.70;99.90;;;;;;4983207;28;20055;-44
2022/07/09 07:06:43;;;;;;;2.03;0.70;;;18.70;99.90;;;;;;4990039;28;20073;-43
2022/07/09 07:09:09;;;;;;;2.22;1.00;;;18.80;99.90;;;;;;4985728;28;20050;-44
2022/07/09 07:11:35;;;;;;;2.75;1.00;;;18.80;99.90;;;;;;4984093;28;20100;-47
2022/07/09 07:14:01;;;;;;;3.70;0.80;;;18.80;99.90;;;;;;4982907;28;20034;-45
2022/07/09 07:16:26;;;;;;;2.85;1.23;;;18.80;99.90;;;;;;4988588;28;20117;-44
2022/07/09 07:18:53;;;;;;;3.88;0.95;;;19.00;99.90;;;;;;4988768;28;20062;-46
2022/07/09 07:21:21;;;;;;;2.80;1.00;;;19.00;99.90;;;;;;4989322;28;20177;-46
2022/07/09 07:23:47;;;;;;;2.22;0.98;;;19.00;99.90;;;;;;4988061;28;20049;-43
2022/07/09 07:26:12;;;;;;;3.58;1.00;;;19.00;99.90;;;;;;4985526;28;20121;-45
2022/07/09 07:28:38;;;;;;;4.93;1.15;;;19.00;99.90;;;;;;4990366;28;20038;-45
2022/07/09 07:31:04;;;;;;;3.80;0.90;;;19.10;99.90;;;;;;4985414;28;20066;-42
2022/07/09 07:33:29;;;;;;;1.95;0.85;;;19.20;99.90;;;;;;4986207;28;20114;-47
2022/07/09 07:35:55;;;;;;;2.38;1.00;;;19.30;99.90;;;;;;4983158;28;20038;-44
2022/07/09 07:38:21;;;;;;;3.47;1.40;;;19.30;99.90;;;;;;4984252;28;20500;-45
2022/07/09 07:40:47;;;;;;;2.22;0.80;;;19.30;99.90;;;;;;4982906;28;20046;-43
2022/07/09 07:43:12;;;;;;;4.35;1.05;;;19.30;99.90;;;;;;4983361;28;20050;-44
2022/07/09 07:45:38;;;;;;;2.13;0.82;;;19.30;99.90;;;;;;4991719;28;20046;-43
2022/07/09 07:48:05;;;;;;;2.42;1.00;;;19.30;99.90;;;;;;4989213;28;20133;-44
2022/07/09 07:50:32;;;;;;;2.85;0.93;;;19.30;99.90;;;;;;4989717;28;20464;-44
2022/07/09 07:52:58;;;;;;;3.70;1.27;;;19.30;99.90;;;;;;4986828;28;20125;-47
2022/07/09 07:55:23;;;;;;;4.22;1.13;;;19.30;99.90;;;;;;4989629;28;20117;-43
2022/07/09 07:57:49;;;;;;;2.05;0.88;;;19.20;99.90;;;;;;4990980;28;20034;-43
2022/07/09 08:00:15;;;;;;;2.28;1.13;;;19.20;99.90;;;;;;4986073;28;20042;-44
2022/07/09 08:02:41;;;;;;;3.08;1.25;;;19.20;99.90;;;;;;4984738;28;20220;-44
2022/07/09 08:05:07;;;;;;;3.40;0.90;;;19.30;99.90;;;;;;4987681;28;20530;-44
2022/07/09 08:07:33;;;;;;;2.20;1.00;;;19.40;99.90;;;;;;4984937;28;20224;-44
2022/07/09 08:09:58;;;;;;;2.85;1.25;;;19.40;99.90;;;;;;4988200;28;20137;-44
2022/07/09 08:12:24;;;;;;;2.85;1.13;;;19.50;99.90;;;;;;4989206;28;20495;-44
2022/07/09 08:14:50;;;;;;;2.83;0.95;;;19.60;99.90;;;;;;4983586;28;20058;-46
2022/07/09 08:17:16;;;;;;;2.60;0.80;;;19.70;99.90;;;;;;4983452;28;20152;-46
2022/07/09 08:19:42;;;;;;;3.38;0.80;;;19.70;99.90;;;;;;4988067;28;20042;-44
2022/07/09 08:22:08;;;;;;;2.00;1.05;;;19.70;99.90;;;;;;4985661;28;20037;-42
2022/07/09 08:24:33;;;;;;;2.25;1.10;;;19.80;99.90;;;;;;4984826;28;20071;-43
2022/07/09 08:26:59;;;;;;;1.95;0.85;;;19.80;99.90;;;;;;4990656;28;21867;-45
2022/07/09 08:29:25;;;;;;;3.25;1.02;;;19.80;99.90;;;;;;4987540;28;20046;-41
2022/07/09 08:31:52;;;;;;;1.92;1.02;;;19.70;99.90;;;;;;4989606;28;20057;-44
2022/07/09 08:34:17;;;;;;;1.55;0.90;;;19.70;99.90;;;;;;4984684;28;20042;-42
2022/07/09 08:36:44;;;;;;;2.22;0.80;;;19.70;99.90;;;;;;4988784;28;20129;-45
2022/07/09 08:39:10;;;;;;;1.67;0.70;;;19.70;99.90;;;;;;4982329;28;20479;-44
2022/07/09 08:41:36;;;;;;;1.05;0.52;;;19.80;99.90;;;;;;4997356;28;20042;-45
2022/07/09 08:44:09;;;;;;;1.65;0.88;;;19.90;99.90;;;;;;4985341;28;20074;-42
2022/07/09 08:46:36;;;;;;;4.35;1.23;;;20.00;99.90;;;;;;4984297;28;20034;-45
2022/07/09 08:49:03;;;;;;;1.83;0.80;;;20.00;99.90;;;;;;4987522;28;20042;-46
2022/07/09 08:51:30;;;;;;;1.92;0.90;;;19.90;99.90;;;;;;4986792;28;20038;-40
2022/07/09 08:53:55;;;;;;;4.10;1.20;;;19.90;99.90;;;;;;4982025;28;20033;-41
2022/07/09 08:56:21;;;;;;;5.28;1.10;;;19.80;99.90;;;;;;4986470;28;20315;-41
2022/07/09 08:58:47;;;;;;;2.08;1.10;;;19.70;99.90;;;;;;4981603;28;20043;-42
2022/07/09 09:01:14;;;;;;;2.97;1.00;;;19.70;99.90;;;;;;4986590;28;20385;-42
2022/07/09 09:03:42;;;;;;;2.80;0.70;;;19.70;99.90;;;;;;4987926;28;20058;-41
2022/07/09 09:06:10;;;;;;;1.70;0.80;;;19.80;99.90;;;;;;4986593;28;20138;-41
2022/07/09 09:08:37;;;;;;;2.47;0.68;;;19.90;99.90;;;;;;4984615;28;20045;-46
2022/07/09 09:11:20;;;;;;;3.10;0.80;;;20.00;99.90;;;;;;4982130;28;20042;-43
2022/07/09 09:13:48;;;;;;;3.63;1.60;;;20.00;99.90;;;;;;4982868;28;20483;-42
2022/07/09 09:16:16;;;;;;;3.65;0.95;;;20.20;99.90;;;;;;4985046;28;20034;-41
2022/07/09 09:18:49;;;;;;;4.88;1.60;;;20.30;99.90;;;;;;4985855;28;20530;-42
2022/07/09 09:21:18;;;;;;;3.75;1.45;;;20.30;99.90;;;;;;4984909;28;20047;-42
2022/07/09 09:23:47;;;;;;;1.95;1.00;;;20.40;99.90;;;;;;4985777;28;20042;-42
2022/07/09 09:26:15;;;;;;;2.90;0.98;;;20.40;99.90;;;;;;4984182;28;20050;-43
2022/07/09 09:28:52;;;;;;;4.30;1.17;;;20.40;99.90;;;;;;4984831;28;20043;-40
2022/07/09 09:31:34;;;;;;;4.22;0.90;;;20.50;99.90;;;;;;4985635;28;20046;-42
2022/07/09 09:34:09;;;;;;;2.95;0.88;;;20.60;99.90;;;;;;4985112;28;20042;-41
2022/07/09 09:36:39;;;;;;;1.30;0.80;;;20.90;99.90;;;;;;4984322;28;20763;-41
2022/07/09 09:39:24;;;;;;;1.80;0.80;;;21.00;99.90;;;;;;4985689;28;20054;-41
2022/07/09 09:42:02;;;;;;;4.85;0.80;;;21.00;99.90;;;;;;4979425;28;20046;-44
2022/07/09 09:44:37;;;;;;;2.50;0.57;;;21.00;99.90;;;;;;4982639;28;20089;-42
2022/07/09 09:47:05;;;;;;;3.22;1.00;;;21.10;99.90;;;;;;4984181;28;20619;-41
2022/07/09 09:49:31;;;;;;;3.67;0.80;;;21.20;99.90;;;;;;4985566;28;20056;-41
2022/07/09 09:52:03;;;;;;;1.85;0.60;;;21.20;99.90;;;;;;4988014;28;20133;-40
2022/07/09 09:54:30;;;;;;;2.15;0.60;;;21.10;99.90;;;;;;4985229;28;20042;-41
2022/07/09 09:56:59;;;;;;;4.18;0.60;;;21.10;99.90;;;;;;4985361;28;20037;-41
2022/07/09 09:59:25;;;;;;;1.20;0.50;;;21.10;99.40;;;;;;4983526;28;20053;-48
2022/07/09 10:01:51;;;;;;;2.35;0.60;;;21.10;99.50;;;;;;4985631;28;20054;-40
2022/07/09 10:04:16;;;;;;;2.08;0.50;;;21.20;98.60;;;;;;4987712;28;20058;-40
2022/07/09 10:06:43;;;;;;;1.23;0.50;;;21.30;98.20;;;;;;4984620;28;20393;-40
2022/07/09 10:09:12;;;;;;;2.35;0.50;;;21.50;98.10;;;;;;4982635;28;20503;-40
2022/07/09 10:11:39;;;;;;;0.85;0.40;;;21.60;97.60;;;;;;4981429;28;20078;-40
2022/07/09 10:14:05;;;;;;;3.80;0.60;;;21.70;95.80;;;;;;4988452;28;20495;-40
2022/07/09 10:16:37;;;;;;;2.53;0.63;;;21.70;96.00;;;;;;4983537;28;20189;-40
2022/07/09 10:19:04;;;;;;;4.00;0.60;;;21.70;96.10;;;;;;4986123;28;20511;-41
2022/07/09 10:21:38;;;;;;;0.95;0.30;;;21.80;95.60;;;;;;4983957;28;20046;-40
2022/07/09 10:24:05;;;;;;;1.52;0.40;;;21.90;93.40;;;;;;4982343;28;20516;-43
2022/07/09 10:26:46;;;;;;;1.83;0.60;;;22.00;93.40;;;;;;4984077;28;20043;-40
2022/07/09 10:29:26;;;;;;;2.00;0.60;;;22.00;92.30;;;;;;4986481;28;20495;-40
2022/07/09 10:31:56;;;;;;;2.35;0.50;;;21.90;92.00;;;;;;4989003;28;20053;-40
2022/07/09 10:34:30;;;;;;;3.20;0.73;;;21.80;92.70;;;;;;4988473;28;20050;-41
2022/07/09 10:37:01;;;;;;;2.60;0.80;;;21.80;92.80;;;;;;5006038;28;20042;-42
2022/07/09 10:39:27;;;;;;;3.08;0.77;;;21.90;93.10;;;;;;4986606;28;20100;-40
2022/07/09 10:42:16;;;;;;;3.13;0.80;;;22.00;93.20;;;;;;5003647;28;20484;-40
2022/07/09 10:44:42;;;;;;;4.05;0.60;;;22.00;92.60;;;;;;4990644;28;20121;-41
2022/07/09 10:47:08;;;;;;;2.47;0.70;;;21.90;92.40;;;;;;4988353;28;20145;-42
2022/07/09 10:49:37;;;;;;;5.40;0.93;;;21.90;92.70;;;;;;4982854;28;20579;-40
2022/07/09 10:52:05;;;;;;;2.20;0.73;;;21.80;92.60;;;;;;4987084;28;20502;-41
2022/07/09 10:54:31;;;;;;;2.65;0.60;;;21.70;92.00;;;;;;4988063;28;20411;-41
2022/07/09 10:56:58;;;;;;;4.65;0.70;;;21.70;92.30;;;;;;4989844;28;20038;-42
2022/07/09 10:59:24;;;;;;;4.95;0.80;;;21.80;91.00;;;;;;4986389;28;20440;-41
2022/07/09 11:01:51;;;;;;;4.03;0.80;;;22.00;91.10;;;;;;4986859;28;20070;-41
2022/07/09 11:04:31;;;;;;;1.65;0.40;;;22.20;91.10;;;;;;4986723;28;20659;-41
2022/07/09 11:06:57;;;;;;;2.72;0.70;;;22.40;88.60;;;;;;4984266;28;20158;-42
2022/07/09 11:09:28;;;;;;;3.30;0.60;;;22.60;89.10;;;;;;4987794;28;20170;-43
2022/07/09 11:11:53;;;;;;;3.22;0.90;;;22.80;87.60;;;;;;4990856;28;20120;-42
2022/07/09 11:14:19;;;;;;;3.05;0.50;;;22.50;87.70;;;;;;4988641;28;20509;-43
2022/07/09 11:16:58;;;;;;;4.88;0.60;;;22.30;87.70;;;;;;4989892;28;20119;-41
2022/07/09 11:19:24;;;;;;;1.45;0.50;;;22.30;87.80;;;;;;4991579;28;20098;-42
2022/07/09 11:21:59;;;;;;;3.00;0.70;;;22.10;88.90;;;;;;4988295;28;20081;-42
2022/07/09 11:24:26;;;;;;;4.75;0.73;;;22.20;89.00;;;;;;4985475;28;20500;-41
2022/07/09 11:26:51;;;;;;;2.03;0.50;;;22.10;89.10;;;;;;4986634;28;20539;-40
2022/07/09 11:29:17;;;;;;;1.92;0.50;;;22.00;90.30;;;;;;4986657;28;20164;-41
2022/07/09 11:31:51;;;;;;;2.03;0.50;;;22.30;90.40;;;;;;4989559;28;20353;-42
2022/07/09 11:34:17;;;;;;;2.42;0.50;;;22.60;88.30;;;;;;4983863;28;20964;-40
2022/07/09 11:36:51;;;;;;;3.90;0.70;;;22.80;88.20;;;;;;4989010;28;20089;-43
2022/07/09 11:39:31;;;;;;;2.38;0.60;;;22.80;87.90;;;;;;4983931;28;20072;-41
2022/07/09 11:41:58;;;;;;;1.73;0.60;;;22.80;86.30;;;;;;4986163;28;20052;-42
2022/07/09 11:44:28;;;;;;;2.60;0.65;;;22.70;86.10;;;;;;4984350;28;20748;-41
2022/07/09 11:47:08;;;;;;;2.47;0.60;;;22.50;86.50;;;;;;4988234;28;20519;-43
2022/07/09 11:49:35;;;;;;;3.75;0.50;;;22.30;86.00;;;;;;4988584;28;20054;-41
2022/07/09 11:52:01;;;;;;;5.75;0.88;;;22.20;86.10;;;;;;4989293;28;20046;-41
2022/07/09 11:54:28;;;;;;;4.68;0.60;;;22.20;86.10;;;;;;4988331;28;20038;-41
2022/07/09 11:56:54;;;;;;;2.42;0.82;;;22.30;86.30;;;;;;4988899;28;20038;-42
2022/07/09 11:59:33;;;;;;;10.38;0.70;;;22.30;86.90;;;;;;4985133;28;20077;-40
2022/07/09 12:02:02;;;;;;;4.03;0.70;;;22.20;87.40;;;;;;4981455;28;20526;-41
2022/07/09 12:04:29;;;;;;;3.25;0.80;;;22.10;88.80;;;;;;4985254;28;20526;-40
2022/07/09 12:06:55;;;;;;;3.90;0.82;;;22.10;90.00;;;;;;4979303;28;20520;-42
2022/07/09 12:09:31;;;;;;;6.70;1.17;;;22.00;90.30;;;;;;4976882;28;20053;-41
2022/07/09 12:11:59;;;;;;;5.43;1.42;;;22.00;90.50;;;;;;4986296;28;20045;-41
2022/07/09 12:14:24;;;;;;;7.50;1.63;;;21.90;90.70;;;;;;4984101;28;20057;-44
2022/07/09 12:16:50;;;;;;;4.32;0.93;;;21.80;90.90;;;;;;4978684;28;20030;-42
2022/07/09 12:19:16;;;;;;;8.50;0.98;;;21.70;91.00;;;;;;4990840;28;20419;-42
2022/07/09 12:21:42;;;;;;;6.95;1.20;;;21.70;91.10;;;;;;4988398;28;20093;-41
2022/07/09 12:24:07;;;;;;;5.95;1.23;;;21.60;91.00;;;;;;4987928;28;20156;-42
2022/07/09 12:26:33;;;;;;;5.45;0.80;;;21.70;90.90;;;;;;4986704;28;20049;-41
2022/07/09 12:28:59;;;;;;;8.48;0.80;;;21.90;90.40;;;;;;4988266;28;20499;-43
2022/07/09 12:31:25;;;;;;;6.25;0.82;;;22.10;90.00;;;;;;4990712;28;20576;-42
2022/07/09 12:33:50;;;;;;;4.47;1.00;;;22.40;89.30;;;;;;4988968;28;20108;-41
2022/07/09 12:36:16;;;;;;;7.07;0.98;;;22.70;88.50;;;;;;4982507;28;20499;-42
2022/07/09 12:38:42;;;;;;;6.25;1.10;;;23.00;86.60;;;;;;4986011;28;20062;-42
2022/07/09 12:41:08;;;;;;;4.13;0.80;;;23.30;85.00;;;;;;4985484;28;20097;-40
2022/07/09 12:43:34;;;;;;;2.03;0.52;;;23.40;83.40;;;;;;4987861;28;20591;-41